La Tontouta International Airport
NWWW : now visible

Airfield :











YOU CAN JOIN US ON...

 
LOGIN :

Register | Disclaimer

   EN    FR    IT 

 









Legend :    VFR   Marginal VFR   IFR   Intensive IFR   Very Intensive IFR
Visi :
Ceiling :
>= 8 km
>= 3000ft
5 to 8 km
1000 to 3000 ft
1500m to 5 km
500 to 1000 ft
800 to 1500m
200 to 500 ft
< 800m
< 200 ft
Symbols :   Thunderstorms  Fog  Heavy snow  Heavy precipitations  Wind > 20 kt






- Airport Elevation : 52 ft
- IATA code : NOU


NWWW - La Tontouta International

CURRENT METAR :
  • 150500Z AUTO 15007KT 9999 -RA FEW027 BKN037 BKN058 25/23 Q1010 TEMPO 4000 SHRA BKN010 FEW018TCU

EXPIRED METARs :
  • 150430Z AUTO 14010KT CAVOK 25/23 Q1009 TEMPO 4000 SHRA BKN010 FEW018TCU
  • 150400Z AUTO 14010KT 9999 ///TCU 25/23 Q1009 TEMPO 4000 SHRA BKN010 FEW018TCU
  • 150330Z AUTO 14012KT 9999 -RA FEW056/// SCT130/// BKN150/// ///TCU 25/23 Q1010 TEMPO 4000 SHRA BKN010 FEW018TCU
  • 150300Z AUTO 13010KT 9999 FEW034/// BKN150/// ///TCU 25/23 Q1011 TEMPO 4000 SHRA BKN010 FEW018TCU
  • 150230Z AUTO 13012KT 9999 BKN044 BKN110 BKN140 25/22 Q1011 TEMPO 4000 SHRA BKN010 FEW018TCU

TAF TAF NWWW
Valid from the 15 at 00:00 until the 16 at 00:00 UTC


142300Z 1500/1524 12015KT 9999 FEW015 BKN050
PROB40
TEMPO 1500/1509 RA BKN120
PROB40
TEMPO 1500/1524 4000 SHRA BKN010 FEW018TCU
NFFF FIR / Oceania



MET'MAP, your aeronautical weather chart ! - Copyright ORBIFLY December 2007 - Disclaimer

ORBIFLY MET'MAP TEAM :

Programming & Development : Alexandra Zaïnal
Concept & original design : Baudouin d'Aumeries
Assistance for programming : Marc-Olivier Méhu
Technical & hardware support : Manuel Goepfert

Contact : metmap@orbifly.com




SOURCES & CREDITS :

   NOAA       Earth
Advisory